createdAt,value
2022-09-12T00:01:15.080Z,13.63
2022-09-12T00:03:49.006Z,13.49
2022-09-12T00:06:24.007Z,13.43
2022-09-12T00:08:57.921Z,13.45
2022-09-12T00:11:30.343Z,13.44
2022-09-12T00:14:03.557Z,13.41
2022-09-12T00:16:37.274Z,13.50
2022-09-12T00:19:09.890Z,13.55
2022-09-12T00:21:40.972Z,13.44
2022-09-12T00:24:13.714Z,13.35
2022-09-12T00:26:44.023Z,13.33
2022-09-12T00:29:19.605Z,13.44
2022-09-12T00:31:51.450Z,13.49
2022-09-12T00:34:23.078Z,13.44
2022-09-12T00:36:54.701Z,13.44
2022-09-12T00:39:26.653Z,13.32
2022-09-12T00:41:58.571Z,13.31
2022-09-12T00:44:49.511Z,13.33
2022-09-12T00:47:25.114Z,13.31
2022-09-12T00:50:04.563Z,13.37
2022-09-12T00:52:41.694Z,13.33
2022-09-12T00:55:17.957Z,13.26
2022-09-12T00:57:55.419Z,13.33
2022-09-12T01:00:29.453Z,13.26
2022-09-12T01:03:05.613Z,13.26
2022-09-12T01:05:44.209Z,13.32
2022-09-12T01:08:16.052Z,13.41
2022-09-12T01:10:48.209Z,13.45
2022-09-12T01:13:20.549Z,13.37
2022-09-12T01:15:52.696Z,13.27
2022-09-12T01:18:31.845Z,13.09
2022-09-12T01:21:21.261Z,13.06
2022-09-12T01:24:13.262Z,13.04
2022-09-12T01:27:09.689Z,13.12
2022-09-12T01:30:17.017Z,13.21
2022-09-12T01:33:01.194Z,13.12
2022-09-12T01:35:39.515Z,13.05
2022-09-12T01:38:18.445Z,13.13
2022-09-12T01:40:59.627Z,13.04
2022-09-12T01:43:35.441Z,12.95
2022-09-12T01:46:11.944Z,12.95
2022-09-12T01:48:49.088Z,12.97
2022-09-12T01:51:26.184Z,13.01
2022-09-12T01:54:05.891Z,12.99
2022-09-12T01:56:41.365Z,13.01
2022-09-12T01:59:19.132Z,12.91
2022-09-12T02:01:57.661Z,12.83
2022-09-12T02:04:34.429Z,12.96
2022-09-12T02:07:16.320Z,12.87
2022-09-12T02:09:52.072Z,12.89
2022-09-12T02:12:31.305Z,12.80
2022-09-12T02:15:08.525Z,12.84
2022-09-12T02:17:43.630Z,12.85
2022-09-12T02:20:37.432Z,12.93
2022-09-12T02:23:15.523Z,12.80
2022-09-12T02:25:50.371Z,12.91
2022-09-12T02:28:26.152Z,12.94
2022-09-12T02:31:08.201Z,12.91
2022-09-12T02:33:50.427Z,12.97
2022-09-12T02:36:36.192Z,13.01
2022-09-12T02:39:09.610Z,12.84
2022-09-12T02:41:39.739Z,12.87
2022-09-12T02:44:11.343Z,12.93
2022-09-12T02:46:46.110Z,12.83
2022-09-12T02:49:18.539Z,12.88
2022-09-12T02:51:51.780Z,12.88
2022-09-12T02:54:24.917Z,12.95
2022-09-12T02:56:56.705Z,12.86
2022-09-12T02:59:29.222Z,12.79
2022-09-12T03:02:15.218Z,12.80
2022-09-12T03:05:12.303Z,12.87
2022-09-12T03:08:06.274Z,12.93
2022-09-12T03:10:48.584Z,12.96
2022-09-12T03:13:26.937Z,12.91
2022-09-12T03:16:12.659Z,12.83
2022-09-12T03:19:00.272Z,12.86
2022-09-12T03:21:37.351Z,12.90
2022-09-12T03:24:16.649Z,12.93
2022-09-12T03:26:53.968Z,12.98
2022-09-12T03:29:28.340Z,13.06
2022-09-12T03:32:01.006Z,12.99
2022-09-12T03:34:32.720Z,12.91
2022-09-12T03:37:04.584Z,12.89
2022-09-12T03:39:36.931Z,12.95
2022-09-12T03:42:08.637Z,13.06
2022-09-12T03:44:40.535Z,13.05
2022-09-12T03:47:12.090Z,12.93
2022-09-12T03:49:43.641Z,13.02
2022-09-12T03:52:15.900Z,13.08
2022-09-12T03:54:47.503Z,12.98
2022-09-12T03:57:19.154Z,13.07
2022-09-12T03:59:52.577Z,13.11
2022-09-12T04:02:24.178Z,13.04
2022-09-12T04:04:55.842Z,13.09
2022-09-12T04:07:28.216Z,13.09
2022-09-12T04:10:00.147Z,13.16
2022-09-12T04:12:33.107Z,13.13
2022-09-12T04:15:05.143Z,13.10
2022-09-12T04:17:37.752Z,13.19
2022-09-12T04:20:10.761Z,13.16
2022-09-12T04:22:42.943Z,13.24
2022-09-12T04:25:14.639Z,13.30
2022-09-12T04:27:46.462Z,13.20
2022-09-12T04:30:18.286Z,13.26
2022-09-12T04:32:49.902Z,13.41
2022-09-12T04:35:21.546Z,13.28
2022-09-12T04:37:53.198Z,13.30
2022-09-12T04:40:24.922Z,13.48
2022-09-12T04:42:56.885Z,13.48
2022-09-12T04:45:28.571Z,13.47
2022-09-12T04:48:00.677Z,13.43
2022-09-12T04:50:32.327Z,13.48
2022-09-12T04:53:03.969Z,13.44
2022-09-12T04:55:36.738Z,13.41
2022-09-12T04:58:08.958Z,13.49
2022-09-12T05:00:40.797Z,13.56
2022-09-12T05:03:12.463Z,13.53
2022-09-12T05:05:44.293Z,13.58
2022-09-12T05:08:16.322Z,13.59
2022-09-12T05:10:48.355Z,13.59
2022-09-12T05:13:19.969Z,13.58
2022-09-12T05:15:58.972Z,13.64
2022-09-12T05:18:32.481Z,13.58
2022-09-12T05:21:06.379Z,13.69
2022-09-12T05:23:38.279Z,13.68
2022-09-12T05:26:13.582Z,13.58
2022-09-12T05:28:45.850Z,13.58
2022-09-12T05:31:19.863Z,13.67
2022-09-12T05:33:53.210Z,13.60
2022-09-12T05:36:29.151Z,13.70
2022-09-12T05:39:01.910Z,13.67
2022-09-12T05:41:33.584Z,13.67
2022-09-12T05:44:07.013Z,13.68
2022-09-12T05:46:41.740Z,13.78
2022-09-12T05:49:14.624Z,13.85
2022-09-12T05:51:47.086Z,13.98
2022-09-12T05:54:21.460Z,13.86
2022-09-12T05:56:53.257Z,13.90
2022-09-12T05:59:25.075Z,13.87
2022-09-12T06:01:56.991Z,13.83
2022-09-12T06:04:29.734Z,13.80
2022-09-12T06:07:01.467Z,13.91
2022-09-12T06:09:33.086Z,13.95
2022-09-12T06:12:05.379Z,13.96
2022-09-12T06:14:37.187Z,14.02
2022-09-12T06:17:09.245Z,14.03
2022-09-12T06:19:40.980Z,14.04
2022-09-12T06:22:13.861Z,14.10
2022-09-12T06:24:45.668Z,14.07
2022-09-12T06:27:17.580Z,14.18
2022-09-12T06:29:49.260Z,14.17
2022-09-12T06:32:21.026Z,14.17
2022-09-12T06:34:52.817Z,14.21
2022-09-12T06:37:24.663Z,14.21
2022-09-12T06:39:56.453Z,14.22
2022-09-12T06:42:28.505Z,14.10
2022-09-12T06:45:03.024Z,14.08
2022-09-12T06:47:35.325Z,14.19
2022-09-12T06:50:08.609Z,14.17
2022-09-12T06:52:40.248Z,14.23
2022-09-12T06:55:15.149Z,14.31
2022-09-12T06:57:49.339Z,14.37
2022-09-12T07:00:21.742Z,14.55
2022-09-12T07:02:56.658Z,14.50
2022-09-12T07:05:28.325Z,14.50
2022-09-12T07:07:59.932Z,14.44
2022-09-12T07:10:31.985Z,14.52
2022-09-12T07:13:03.635Z,14.55
2022-09-12T07:15:37.425Z,14.54
2022-09-12T07:18:11.669Z,14.62
2022-09-12T07:20:43.350Z,14.70
2022-09-12T07:23:15.016Z,14.82
2022-09-12T07:25:53.043Z,14.94
2022-09-12T07:28:28.081Z,15.02
2022-09-12T07:31:06.173Z,15.03
2022-09-12T07:33:38.972Z,15.02
2022-09-12T07:36:11.963Z,15.03
2022-09-12T07:38:43.771Z,15.11
2022-09-12T07:41:18.307Z,15.06
2022-09-12T07:43:52.448Z,15.21
2022-09-12T07:46:25.252Z,15.21
2022-09-12T07:48:56.275Z,15.18
2022-09-12T07:51:29.881Z,15.27
2022-09-12T07:54:02.738Z,15.43
2022-09-12T07:56:38.875Z,15.40
2022-09-12T07:59:11.525Z,15.50
2022-09-12T08:01:43.513Z,15.65
2022-09-12T08:04:15.891Z,15.66
2022-09-12T08:06:47.605Z,15.74
2022-09-12T08:09:19.589Z,15.89
2022-09-12T08:11:51.270Z,15.69
2022-09-12T08:14:23.234Z,15.67
2022-09-12T08:16:55.032Z,15.59
2022-09-12T08:19:26.685Z,15.53
2022-09-12T08:21:58.373Z,15.46
2022-09-12T08:24:29.978Z,15.51
2022-09-12T08:27:01.730Z,15.64
2022-09-12T08:29:33.434Z,15.59
2022-09-12T08:32:05.750Z,15.66
2022-09-12T08:34:37.464Z,15.81
2022-09-12T08:37:09.690Z,15.88
2022-09-12T08:39:41.895Z,16.03
2022-09-12T08:42:24.417Z,16.05
2022-09-12T08:45:16.244Z,15.93
2022-09-12T08:47:50.040Z,15.98
2022-09-12T08:50:23.571Z,16.09
2022-09-12T08:53:03.249Z,16.24
2022-09-12T08:55:38.518Z,16.24
2022-09-12T08:58:16.194Z,16.18
2022-09-12T09:01:03.332Z,16.25
2022-09-12T09:04:14.228Z,16.29
2022-09-12T09:07:06.135Z,16.29
2022-09-12T09:09:51.176Z,16.41
2022-09-12T09:12:34.848Z,16.36
2022-09-12T09:15:41.186Z,16.33
2022-09-12T09:18:21.113Z,16.49
2022-09-12T09:20:57.273Z,16.47
2022-09-12T09:23:32.346Z,16.53
2022-09-12T09:26:09.388Z,16.60
2022-09-12T09:28:47.488Z,16.68
2022-09-12T09:31:21.953Z,16.78
2022-09-12T09:33:56.288Z,16.92
2022-09-12T09:36:39.591Z,17.05
2022-09-12T09:39:22.087Z,17.13
2022-09-12T09:42:02.325Z,17.33
2022-09-12T09:44:34.277Z,17.37
2022-09-12T09:47:06.291Z,17.48
2022-09-12T09:49:38.060Z,17.65
2022-09-12T09:52:14.896Z,17.62
2022-09-12T09:54:54.241Z,17.58
2022-09-12T09:57:49.997Z,17.91
2022-09-12T10:00:27.826Z,18.14
2022-09-12T10:03:25.503Z,18.15
2022-09-12T10:06:01.020Z,17.99
2022-09-12T10:08:35.246Z,17.98
2022-09-12T10:11:22.893Z,18.10
2022-09-12T10:14:00.566Z,18.49
2022-09-12T10:16:34.885Z,18.72
2022-09-12T10:19:07.908Z,18.82
2022-09-12T10:21:46.968Z,18.69
2022-09-12T10:24:25.302Z,18.69
2022-09-12T10:27:00.348Z,18.68
2022-09-12T10:29:36.192Z,18.59
2022-09-12T10:32:12.663Z,18.62
2022-09-12T10:34:46.609Z,18.65
2022-09-12T10:37:27.560Z,18.63
2022-09-12T10:40:01.533Z,18.69
2022-09-12T10:42:54.678Z,18.82
2022-09-12T10:45:30.086Z,19.29
2022-09-12T10:48:07.520Z,19.54
2022-09-12T10:50:43.722Z,19.81
2022-09-12T10:53:22.608Z,19.76
2022-09-12T10:56:06.658Z,19.40
2022-09-12T10:59:01.170Z,19.16
2022-09-12T11:01:41.500Z,19.20
2022-09-12T11:04:25.402Z,19.55
2022-09-12T11:07:21.169Z,19.74
2022-09-12T11:10:01.656Z,19.89
2022-09-12T11:12:42.309Z,20.43
2022-09-12T11:15:36.322Z,20.38
2022-09-12T11:18:17.275Z,20.41
2022-09-12T11:21:00.926Z,20.57
2022-09-12T11:23:51.404Z,20.73
2022-09-12T11:26:58.422Z,20.79
2022-09-12T11:29:42.633Z,20.49
2022-09-12T11:32:47.525Z,20.93
2022-09-12T11:35:26.456Z,20.32
2022-09-12T11:38:24.508Z,20.21
2022-09-12T11:41:00.403Z,20.29
2022-09-12T11:43:42.400Z,20.31
2022-09-12T11:46:21.764Z,20.33
2022-09-12T11:48:59.998Z,20.16
2022-09-12T11:51:38.689Z,20.21
2022-09-12T11:54:23.965Z,19.91
2022-09-12T11:57:02.378Z,19.79
2022-09-12T11:59:42.493Z,19.80
2022-09-12T12:02:21.073Z,19.87
2022-09-12T12:05:04.834Z,19.77
2022-09-12T12:07:45.658Z,19.75
2022-09-12T12:10:39.100Z,19.76
2022-09-12T12:13:19.296Z,19.84
2022-09-12T12:15:55.408Z,19.81
2022-09-12T12:18:29.238Z,19.71
2022-09-12T12:21:22.937Z,19.69
2022-09-12T12:24:05.974Z,19.69
2022-09-12T12:27:02.705Z,19.64
2022-09-12T12:29:45.432Z,19.64
2022-09-12T12:32:27.657Z,19.81
2022-09-12T12:35:30.078Z,19.95
2022-09-12T12:38:02.988Z,20.07
2022-09-12T12:40:34.837Z,20.00
2022-09-12T12:43:31.504Z,19.92
2022-09-12T12:46:09.373Z,19.89
2022-09-12T12:49:05.938Z,19.92
2022-09-12T12:52:02.657Z,19.90
2022-09-12T12:54:51.104Z,19.95
2022-09-12T12:57:56.466Z,20.11
2022-09-12T13:00:32.815Z,20.05
2022-09-12T13:03:19.613Z,20.11
2022-09-12T13:05:57.460Z,20.15
2022-09-12T13:08:33.279Z,20.12
2022-09-12T13:11:11.730Z,20.10
2022-09-12T13:13:54.279Z,20.05
2022-09-12T13:16:35.222Z,20.06
2022-09-12T13:19:17.976Z,19.94
2022-09-12T13:22:01.406Z,19.83
2022-09-12T13:24:33.294Z,19.68
2022-09-12T13:27:16.654Z,19.70
2022-09-12T13:29:48.789Z,19.68
2022-09-12T13:32:21.057Z,19.66
2022-09-12T13:35:08.801Z,19.56
2022-09-12T13:37:51.453Z,19.53
2022-09-12T13:40:34.699Z,19.48
2022-09-12T13:43:17.008Z,19.43
2022-09-12T13:45:50.640Z,19.43
2022-09-12T13:48:26.304Z,19.59
2022-09-12T13:51:01.698Z,19.60
2022-09-12T13:53:45.423Z,19.47
2022-09-12T13:56:21.670Z,19.32
2022-09-12T13:58:58.023Z,19.38
2022-09-12T14:01:40.776Z,19.46
2022-09-12T14:04:39.386Z,19.43
2022-09-12T14:07:17.308Z,19.45
2022-09-12T14:09:56.907Z,19.58
2022-09-12T14:12:32.387Z,19.84
2022-09-12T14:15:04.861Z,19.88
2022-09-12T14:17:36.270Z,19.99
2022-09-12T14:20:13.641Z,20.26
2022-09-12T14:22:49.332Z,20.42
2022-09-12T14:25:25.470Z,20.59
2022-09-12T14:27:59.048Z,20.74
2022-09-12T14:30:33.045Z,20.84
2022-09-12T14:33:20.865Z,20.98
2022-09-12T14:35:57.661Z,21.04
2022-09-12T14:38:39.135Z,21.06
2022-09-12T14:41:13.024Z,21.15
2022-09-12T14:43:48.380Z,21.31
2022-09-12T14:46:24.086Z,21.20
2022-09-12T14:48:58.556Z,21.23
2022-09-12T14:51:35.063Z,21.29
2022-09-12T14:54:36.211Z,21.32
2022-09-12T14:57:28.753Z,21.30
2022-09-12T15:00:20.908Z,21.36
2022-09-12T15:02:53.955Z,21.36
2022-09-12T15:05:30.113Z,21.53
2022-09-12T15:08:03.518Z,21.62
2022-09-12T15:10:37.713Z,21.76
2022-09-12T15:13:21.116Z,21.71
2022-09-12T15:15:55.883Z,21.77
2022-09-12T15:18:29.709Z,21.91
2022-09-12T15:21:05.604Z,21.92
2022-09-12T15:23:42.937Z,21.86
2022-09-12T15:26:17.396Z,21.90
2022-09-12T15:28:49.835Z,21.91
2022-09-12T15:31:27.321Z,21.81
2022-09-12T15:34:01.798Z,22.02
2022-09-12T15:36:34.481Z,22.10
2022-09-12T15:39:06.597Z,22.14
2022-09-12T15:41:39.492Z,21.76
2022-09-12T15:44:14.311Z,21.34
2022-09-12T15:46:46.400Z,21.05
2022-09-12T15:49:18.460Z,20.85
2022-09-12T15:51:50.093Z,20.63
2022-09-12T15:54:22.158Z,20.44
2022-09-12T15:56:54.019Z,20.27
2022-09-12T15:59:25.847Z,20.16
2022-09-12T16:01:58.321Z,19.92
2022-09-12T16:04:31.162Z,19.70
2022-09-12T16:07:02.981Z,19.47
2022-09-12T16:09:34.750Z,19.48
2022-09-12T16:12:07.395Z,19.39
2022-09-12T16:14:39.049Z,19.32
2022-09-12T16:17:11.455Z,19.33
2022-09-12T16:19:43.755Z,19.09
2022-09-12T16:22:15.467Z,19.21
2022-09-12T16:24:47.161Z,19.07
2022-09-12T16:27:19.633Z,19.09
2022-09-12T16:29:51.972Z,18.87
2022-09-12T16:32:23.651Z,18.96
2022-09-12T16:34:55.408Z,18.91
2022-09-12T16:37:27.118Z,18.88
2022-09-12T16:39:59.150Z,18.91
2022-09-12T16:42:31.281Z,18.73
2022-09-12T16:45:03.380Z,18.75
2022-09-12T16:47:35.605Z,18.61
2022-09-12T16:50:09.470Z,18.64
2022-09-12T16:52:41.204Z,18.58
2022-09-12T16:55:12.955Z,18.45
2022-09-12T16:57:44.803Z,18.44
2022-09-12T17:00:17.305Z,18.45
2022-09-12T17:02:49.466Z,18.32
2022-09-12T17:05:21.192Z,18.25
2022-09-12T17:07:52.920Z,18.26
2022-09-12T17:10:24.592Z,18.26
2022-09-12T17:12:56.694Z,18.32
2022-09-12T17:15:28.401Z,18.31
2022-09-12T17:18:00.339Z,18.29
2022-09-12T17:20:32.359Z,18.12
2022-09-12T17:23:07.772Z,17.95
2022-09-12T17:25:41.564Z,17.87
2022-09-12T17:28:13.326Z,17.89
2022-09-12T17:30:45.040Z,17.86
2022-09-12T17:33:17.552Z,17.77
2022-09-12T17:35:49.093Z,17.87
2022-09-12T17:38:25.009Z,17.90
2022-09-12T17:40:59.719Z,17.87
2022-09-12T17:43:32.901Z,17.93
2022-09-12T17:46:05.142Z,17.89
2022-09-12T17:48:37.337Z,17.84
2022-09-12T17:51:13.569Z,17.78
2022-09-12T17:53:45.880Z,17.69
2022-09-12T17:56:17.801Z,17.67
2022-09-12T17:58:49.437Z,17.66
2022-09-12T18:01:38.950Z,17.56
2022-09-12T18:04:11.511Z,17.63
2022-09-12T18:06:48.247Z,17.58
2022-09-12T18:09:25.134Z,17.41
2022-09-12T18:11:57.272Z,17.33
2022-09-12T18:14:30.631Z,17.43
2022-09-12T18:17:03.310Z,17.48
2022-09-12T18:19:35.887Z,17.42
2022-09-12T18:22:08.922Z,17.36
2022-09-12T18:24:41.258Z,17.40
2022-09-12T18:27:13.080Z,17.34
2022-09-12T18:29:55.116Z,17.24
2022-09-12T18:32:36.272Z,17.18
2022-09-12T18:35:09.738Z,17.11
2022-09-12T18:37:42.901Z,17.01
2022-09-12T18:40:15.215Z,16.98
2022-09-12T18:42:48.012Z,17.02
2022-09-12T18:45:18.128Z,17.00
2022-09-12T18:47:49.777Z,16.86
2022-09-12T18:50:23.328Z,16.71
2022-09-12T18:52:59.632Z,16.61
2022-09-12T18:55:33.134Z,16.55
2022-09-12T18:58:04.924Z,16.37
2022-09-12T19:00:40.572Z,16.43
2022-09-12T19:03:12.611Z,16.36
2022-09-12T19:05:44.190Z,16.36
2022-09-12T19:08:16.132Z,16.40
2022-09-12T19:10:54.808Z,16.43
2022-09-12T19:13:26.642Z,16.42
2022-09-12T19:15:58.343Z,16.31
2022-09-12T19:18:31.443Z,16.27
2022-09-12T19:21:03.403Z,16.20
2022-09-12T19:23:35.982Z,16.33
2022-09-12T19:26:09.952Z,16.27
2022-09-12T19:28:42.376Z,16.20
2022-09-12T19:31:19.037Z,16.22
2022-09-12T19:33:52.257Z,16.09
2022-09-12T19:39:17.336Z,15.84
2022-09-12T19:41:49.715Z,15.74
2022-09-12T19:44:21.501Z,15.88
2022-09-12T19:46:53.461Z,15.85
2022-09-12T19:49:25.604Z,15.82
2022-09-12T19:51:57.581Z,15.73
2022-09-12T19:54:29.241Z,15.70
2022-09-12T19:57:01.379Z,15.60
2022-09-12T19:59:33.129Z,15.41
2022-09-12T20:02:05.391Z,15.50
2022-09-12T20:04:38.956Z,15.62
2022-09-12T20:07:10.734Z,15.56
2022-09-12T20:09:42.727Z,15.52
2022-09-12T20:12:15.129Z,15.47
2022-09-12T20:14:46.789Z,15.43
2022-09-12T20:17:19.077Z,15.36
2022-09-12T20:19:51.170Z,15.36
2022-09-12T20:22:23.235Z,15.34
2022-09-12T20:24:55.170Z,15.38
2022-09-12T20:27:27.498Z,15.41
2022-09-12T20:29:59.734Z,15.38
2022-09-12T20:32:31.732Z,15.39
2022-09-12T20:35:03.936Z,15.26
2022-09-12T20:37:37.198Z,15.03
2022-09-12T20:40:11.447Z,15.04
2022-09-12T20:42:43.289Z,15.02
2022-09-12T20:45:15.314Z,14.95
2022-09-12T20:47:47.008Z,14.86
2022-09-12T20:50:18.999Z,14.86
2022-09-12T20:52:51.078Z,14.89
2022-09-12T20:55:23.029Z,14.98
2022-09-12T20:57:54.683Z,14.95
2022-09-12T21:00:26.398Z,15.00
2022-09-12T21:02:58.239Z,15.08
2022-09-12T21:05:30.372Z,15.05
2022-09-12T21:08:02.583Z,14.96
2022-09-12T21:10:34.568Z,14.74
2022-09-12T21:13:06.203Z,14.60
2022-09-12T21:15:38.377Z,14.55
2022-09-12T21:18:11.396Z,14.45
2022-09-12T21:20:43.026Z,14.49
2022-09-12T21:23:14.674Z,14.53
2022-09-12T21:25:52.194Z,14.47
2022-09-12T21:28:25.291Z,14.50
2022-09-12T21:30:55.959Z,14.49
2022-09-12T21:33:28.089Z,14.38
2022-09-12T21:36:04.556Z,14.27
2022-09-12T21:38:36.947Z,14.23
2022-09-12T21:41:10.854Z,14.25
2022-09-12T21:43:43.319Z,14.44
2022-09-12T21:46:15.248Z,14.48
2022-09-12T21:48:47.121Z,14.40
2022-09-12T21:51:18.785Z,14.30
2022-09-12T21:53:50.447Z,14.20
2022-09-12T21:56:22.078Z,14.03
2022-09-12T21:58:53.956Z,14.20
2022-09-12T22:01:25.698Z,14.21
2022-09-12T22:03:57.361Z,14.38
2022-09-12T22:06:28.994Z,14.46
2022-09-12T22:09:00.890Z,14.52
2022-09-12T22:11:32.562Z,14.58
2022-09-12T22:14:04.256Z,14.65
2022-09-12T22:16:36.070Z,14.61
2022-09-12T22:19:08.502Z,14.58
2022-09-12T22:22:00.163Z,14.56
2022-09-12T22:24:32.059Z,14.47
2022-09-12T22:27:06.070Z,14.38
2022-09-12T22:29:39.045Z,14.45
2022-09-12T22:32:11.126Z,14.37
2022-09-12T22:34:43.247Z,14.43
2022-09-12T22:37:15.128Z,14.55
2022-09-12T22:39:46.932Z,14.61
2022-09-12T22:42:18.686Z,14.61
2022-09-12T22:44:50.346Z,14.59
2022-09-12T22:47:22.158Z,14.48
2022-09-12T22:49:53.937Z,14.48
2022-09-12T22:52:25.906Z,14.36
2022-09-12T22:54:57.674Z,14.33
2022-09-12T22:57:29.352Z,14.47
2022-09-12T23:00:01.221Z,14.62
2022-09-12T23:02:33.107Z,14.66
2022-09-12T23:05:04.885Z,14.61
2022-09-12T23:07:36.671Z,14.40
2022-09-12T23:10:10.633Z,14.40
2022-09-12T23:12:42.673Z,14.25
2022-09-12T23:15:16.433Z,14.08
2022-09-12T23:17:48.473Z,14.00
2022-09-12T23:20:20.337Z,13.99
2022-09-12T23:22:52.433Z,14.04
2022-09-12T23:25:26.276Z,13.96
2022-09-12T23:27:58.349Z,13.97
2022-09-12T23:30:30.980Z,13.97
2022-09-12T23:33:02.802Z,13.92
2022-09-12T23:35:36.392Z,13.86
2022-09-12T23:38:11.465Z,13.88
2022-09-12T23:40:46.141Z,13.91
2022-09-12T23:43:18.092Z,13.75
2022-09-12T23:45:50.343Z,13.72
2022-09-12T23:48:22.096Z,13.81
2022-09-12T23:50:53.870Z,13.77
2022-09-12T23:53:26.222Z,13.77
2022-09-12T23:55:59.480Z,13.90
2022-09-12T23:58:31.857Z,13.86
